createdAt,value
2023-03-16T00:05:10.169Z,2.2
2023-03-16T00:11:04.136Z,2.1
2023-03-16T00:16:42.322Z,2.1
2023-03-16T00:22:05.009Z,2
2023-03-16T00:33:20.601Z,1.9
2023-03-16T00:39:14.255Z,1.9
2023-03-16T00:45:06.924Z,1.8
2023-03-16T00:50:29.676Z,1.8
2023-03-16T00:56:23.348Z,1.7
2023-03-16T01:02:01.091Z,1.6
2023-03-16T01:07:53.419Z,1.6
2023-03-16T01:12:59.912Z,1.5
2023-03-16T01:18:52.563Z,1.4
2023-03-16T01:23:58.048Z,1.4
2023-03-16T01:29:35.015Z,1.3
2023-03-16T01:35:29.555Z,1.3
2023-03-16T01:41:21.817Z,1.2
2023-03-16T01:52:23.073Z,1.1
2023-03-16T01:58:15.508Z,1.1
2023-03-16T02:03:38.049Z,1
2023-03-16T02:09:01.531Z,0.9
2023-03-16T02:14:54.938Z,0.9
2023-03-16T02:20:33.164Z,0.8
2023-03-16T02:26:26.615Z,0.8
2023-03-16T02:32:19.778Z,0.7
2023-03-16T02:38:13.531Z,0.7
2023-03-16T02:43:51.434Z,0.6
2023-03-16T02:49:29.601Z,0.6
2023-03-16T02:55:22.265Z,0.6
2023-03-16T03:01:00.688Z,0.6
2023-03-16T03:06:09.160Z,0.5
2023-03-16T03:12:01.321Z,0.5
2023-03-16T03:17:54.208Z,0.4
2023-03-16T03:23:46.406Z,0.4
2023-03-16T03:29:23.731Z,0.4
2023-03-16T03:35:16.791Z,0.4
2023-03-16T03:40:39.298Z,0.3
2023-03-16T03:46:16.908Z,0.3
2023-03-16T03:51:39.386Z,0.3
2023-03-16T03:56:45.272Z,0.3
2023-03-16T04:02:41.943Z,0.3
2023-03-16T04:08:35.436Z,0.3
2023-03-16T04:14:12.549Z,0.3
2023-03-16T04:25:28.312Z,0.2
2023-03-16T04:30:50.464Z,0.2
2023-03-16T04:36:28.170Z,0.2
2023-03-16T04:42:06.360Z,0.2
2023-03-16T04:47:43.936Z,0.2
2023-03-16T04:53:21.989Z,0.1
2023-03-16T04:59:15.329Z,0.1
2023-03-16T05:05:13.915Z,0.2
2023-03-16T05:16:13.288Z,0.1
2023-03-16T05:22:05.968Z,0.2
2023-03-16T05:27:59.369Z,0.1
2023-03-16T05:33:22.970Z,0.2
2023-03-16T05:39:02.970Z,0.2
2023-03-16T05:44:55.887Z,0.2
2023-03-16T05:50:34.752Z,0.2
2023-03-16T05:56:13.215Z,0.2
2023-03-16T06:02:06.343Z,0.2
2023-03-16T06:08:00.906Z,0.3
2023-03-16T06:13:53.893Z,0.3
2023-03-16T06:19:46.414Z,0.3
2023-03-16T06:25:40.645Z,0.3
2023-03-16T06:31:33.441Z,0.4
2023-03-16T06:37:29.061Z,0.4
2023-03-16T06:43:25.145Z,0.4
2023-03-16T06:49:02.585Z,0.5
2023-03-16T06:54:42.108Z,0.5
2023-03-16T07:00:34.484Z,0.6
2023-03-16T07:06:27.631Z,0.6
2023-03-16T07:12:20.105Z,0.6
2023-03-16T07:18:17.586Z,0.7
2023-03-16T07:24:11.250Z,0.7
2023-03-16T07:30:08.763Z,0.8
2023-03-16T07:36:19.550Z,0.9
2023-03-16T07:41:57.389Z,0.9
2023-03-16T07:47:34.293Z,1
2023-03-16T07:53:13.460Z,1.1
2023-03-16T07:59:21.769Z,1.3
2023-03-16T08:05:16.165Z,1.5
2023-03-16T08:11:12.152Z,1.8
2023-03-16T08:16:50.462Z,2.2
2023-03-16T08:22:55.491Z,2.8
2023-03-16T08:28:48.485Z,4.3
2023-03-16T08:34:27.680Z,6.4
2023-03-16T08:40:17.586Z,7.4
2023-03-16T08:45:55.544Z,7.8
2023-03-16T08:51:32.631Z,8.2
2023-03-16T08:57:36.855Z,8.7
2023-03-16T09:03:43.284Z,9.3
2023-03-16T09:09:44.160Z,9.8
2023-03-16T09:15:22.480Z,10
2023-03-16T09:21:33.022Z,10.1
2023-03-16T09:27:11.206Z,10.1
2023-03-16T09:33:08.179Z,10
2023-03-16T09:39:01.460Z,9.8
2023-03-16T09:44:43.257Z,9.6
2023-03-16T09:50:20.801Z,9.4
2023-03-16T09:55:36.375Z,9.3
2023-03-16T10:01:13.551Z,9.2
2023-03-16T10:07:06.751Z,9.1
2023-03-16T10:12:59.208Z,9.3
2023-03-16T10:18:51.729Z,9.4
2023-03-16T10:24:44.514Z,9.6
2023-03-16T10:30:21.707Z,9.8
2023-03-16T10:36:01.714Z,10.2
2023-03-16T10:41:55.280Z,10.6
2023-03-16T10:47:50.416Z,10.8
2023-03-16T10:53:43.573Z,11.1
2023-03-16T10:59:36.405Z,11.4
2023-03-16T11:05:30.819Z,11.6
2023-03-16T11:11:33.188Z,11.7
2023-03-16T11:17:41.642Z,11.9
2023-03-16T11:23:34.682Z,12.1
2023-03-16T11:29:26.680Z,12.2
2023-03-16T11:35:22.774Z,12.2
2023-03-16T11:41:16.852Z,12.1
2023-03-16T11:47:08.793Z,11.9
2023-03-16T11:53:02.056Z,11.8
2023-03-16T11:58:38.571Z,11.6
2023-03-16T12:04:52.028Z,11.4
2023-03-16T12:10:38.992Z,11.1
2023-03-16T12:16:42.789Z,10.9
2023-03-16T12:22:41.288Z,10.8
2023-03-16T12:28:34.756Z,10.8
2023-03-16T12:34:12.475Z,10.8
2023-03-16T12:40:04.633Z,10.6
2023-03-16T12:45:57.790Z,10.3
2023-03-16T12:51:35.181Z,10.1
2023-03-16T12:57:15.466Z,10
2023-03-16T13:02:37.334Z,10.1
2023-03-16T13:08:20.581Z,10.3
2023-03-16T13:13:58.749Z,10.6
2023-03-16T13:19:40.624Z,10.9
2023-03-16T13:25:49.197Z,11.2
2023-03-16T13:31:11.732Z,11.3
2023-03-16T13:36:18.499Z,11.4
2023-03-16T13:41:59.487Z,11.6
2023-03-16T13:47:37.580Z,11.8
2023-03-16T13:53:13.801Z,12.2
2023-03-16T13:58:52.360Z,12.4
2023-03-16T14:04:29.832Z,12.3
2023-03-16T14:10:07.292Z,11.8
2023-03-16T14:16:05.672Z,11.3
2023-03-16T14:22:07.809Z,10.7
2023-03-16T14:28:02.957Z,10.1
2023-03-16T14:33:56.880Z,9.6
2023-03-16T14:39:35.137Z,9.2
2023-03-16T14:45:29.116Z,8.7
2023-03-16T14:51:07.108Z,8.3
2023-03-16T14:57:00.045Z,7.9
2023-03-16T15:03:10.659Z,7.5
2023-03-16T15:09:05.939Z,7.2
2023-03-16T15:20:36.137Z,6.8
2023-03-16T15:26:12.991Z,6.6
2023-03-16T15:32:06.216Z,6.4
2023-03-16T15:37:44.175Z,6.3
2023-03-16T15:43:48.799Z,6.1
2023-03-16T15:49:47.638Z,5.9
2023-03-16T15:55:48.916Z,5.6
2023-03-16T16:01:56.495Z,5.4
2023-03-16T16:07:33.522Z,5.1
2023-03-16T16:12:54.838Z,4.9
2023-03-16T16:19:16.140Z,4.7
2023-03-16T16:24:53.309Z,4.4
2023-03-16T16:30:30.287Z,4.3
2023-03-16T16:41:12.267Z,3.8
2023-03-16T16:45:48.834Z,3.6
2023-03-16T16:51:11.598Z,3.4
2023-03-16T16:56:36.585Z,3.3
2023-03-16T17:02:22.477Z,3.1
2023-03-16T17:07:32.095Z,3
2023-03-16T17:12:54.427Z,2.8
2023-03-16T17:18:18.309Z,2.7
2023-03-16T17:24:11.414Z,2.6
2023-03-16T17:29:34.142Z,2.4
2023-03-16T17:35:12.383Z,2.3
2023-03-16T17:40:54.512Z,2.2
2023-03-16T17:46:34.524Z,2.1
2023-03-16T17:52:27.485Z,2
2023-03-16T17:58:20.409Z,1.9
2023-03-16T18:03:44.908Z,1.8
2023-03-16T18:09:38.565Z,1.8
2023-03-16T18:15:16.989Z,1.6
2023-03-16T18:20:23.960Z,1.6
2023-03-16T18:26:17.608Z,1.5
2023-03-16T18:32:12.665Z,1.4
2023-03-16T18:38:06.059Z,1.3
2023-03-16T18:43:44.035Z,1.3
2023-03-16T18:49:21.893Z,1.2
2023-03-16T18:55:15.102Z,1.1
2023-03-16T19:00:36.819Z,1.1
2023-03-16T19:05:44.233Z,1
2023-03-16T19:11:08.494Z,0.9
2023-03-16T19:16:46.752Z,0.9
2023-03-16T19:22:24.105Z,0.9
2023-03-16T19:28:01.985Z,0.8
2023-03-16T19:39:31.442Z,0.8
2023-03-16T19:45:09.520Z,0.7
2023-03-16T19:51:02.621Z,0.6
2023-03-16T19:56:55.578Z,0.6
2023-03-16T20:02:48.366Z,0.6
2023-03-16T20:08:42.039Z,0.6
2023-03-16T20:14:19.914Z,0.5
2023-03-16T20:19:43.257Z,0.5
2023-03-16T20:25:04.991Z,0.4
2023-03-16T20:30:58.173Z,0.4
2023-03-16T20:36:35.776Z,0.4
2023-03-16T20:42:14.600Z,0.4
2023-03-16T20:47:52.785Z,0.4
2023-03-16T20:59:06.724Z,0.3
2023-03-16T21:04:59.982Z,0.3
2023-03-16T21:11:01.857Z,0.3
2023-03-16T21:16:25.613Z,0.3
2023-03-16T21:22:17.537Z,0.3
2023-03-16T21:28:11.499Z,0.3
2023-03-16T21:34:04.767Z,0.3
2023-03-16T21:39:58.179Z,0.3
2023-03-16T21:45:52.481Z,0.2
2023-03-16T21:51:46.266Z,0.3
2023-03-16T21:57:25.664Z,0.2
2023-03-16T22:02:59.266Z,0.2
2023-03-16T22:09:09.550Z,0.2
2023-03-16T22:14:47.484Z,0.2
2023-03-16T22:20:40.298Z,0.2
2023-03-16T22:26:18.783Z,0.1
2023-03-16T22:31:56.061Z,0.1
2023-03-16T22:37:48.732Z,0.2
2023-03-16T22:43:40.724Z,0.1
2023-03-16T22:49:18.172Z,0.1
2023-03-16T22:55:11.443Z,0.1
2023-03-16T23:01:05.185Z,0.1
2023-03-16T23:06:58.947Z,0.1
2023-03-16T23:12:38.393Z,0.1
2023-03-16T23:18:31.795Z,0.1
2023-03-16T23:24:45.592Z,0.1
2023-03-16T23:30:23.014Z,0.1
2023-03-16T23:36:01.360Z,0.1
2023-03-16T23:41:38.778Z,0.1
2023-03-16T23:47:15.878Z,0.1
2023-03-16T23:52:53.874Z,0.1
2023-03-16T23:58:30.680Z,0.1
